sensor_id;sensor_type;location;lat;lon;timestamp;P1;durP1;ratioP1;P2;durP2;ratioP2
72319;SDS011;60269;52.502;16.732;2024-01-10T00:03:08;99.72;;;33.70;;
72319;SDS011;60269;52.502;16.732;2024-01-10T00:06:40;83.82;;;28.00;;
72319;SDS011;60269;52.502;16.732;2024-01-10T00:10:14;86.38;;;28.58;;
72319;SDS011;60269;52.502;16.732;2024-01-10T00:13:46;87.77;;;31.60;;
72319;SDS011;60269;52.502;16.732;2024-01-10T00:17:18;104.95;;;35.28;;
72319;SDS011;60269;52.502;16.732;2024-01-10T00:20:51;123.43;;;38.33;;
72319;SDS011;60269;52.502;16.732;2024-01-10T00:24:25;107.73;;;39.20;;
72319;SDS011;60269;52.502;16.732;2024-01-10T00:27:57;112.30;;;38.72;;
72319;SDS011;60269;52.502;16.732;2024-01-10T00:31:29;89.82;;;32.28;;
72319;SDS011;60269;52.502;16.732;2024-01-10T00:35:01;98.70;;;34.60;;
72319;SDS011;60269;52.502;16.732;2024-01-10T00:38:36;105.50;;;36.08;;
72319;SDS011;60269;52.502;16.732;2024-01-10T00:42:08;93.80;;;34.42;;
72319;SDS011;60269;52.502;16.732;2024-01-10T00:45:40;113.05;;;36.08;;
72319;SDS011;60269;52.502;16.732;2024-01-10T00:49:12;100.43;;;33.17;;
72319;SDS011;60269;52.502;16.732;2024-01-10T00:52:44;133.02;;;40.92;;
72319;SDS011;60269;52.502;16.732;2024-01-10T00:56:17;117.63;;;33.17;;
72319;SDS011;60269;52.502;16.732;2024-01-10T00:59:49;115.97;;;38.97;;
72319;SDS011;60269;52.502;16.732;2024-01-10T01:03:21;103.00;;;37.22;;
72319;SDS011;60269;52.502;16.732;2024-01-10T01:06:53;90.70;;;30.80;;
72319;SDS011;60269;52.502;16.732;2024-01-10T01:10:25;100.30;;;33.60;;
72319;SDS011;60269;52.502;16.732;2024-01-10T01:13:57;93.28;;;33.63;;
72319;SDS011;60269;52.502;16.732;2024-01-10T01:17:29;92.55;;;32.00;;
72319;SDS011;60269;52.502;16.732;2024-01-10T01:21:02;87.40;;;31.05;;
72319;SDS011;60269;52.502;16.732;2024-01-10T01:24:34;93.33;;;33.40;;
72319;SDS011;60269;52.502;16.732;2024-01-10T01:28:07;96.03;;;33.05;;
72319;SDS011;60269;52.502;16.732;2024-01-10T01:31:40;100.78;;;36.13;;
72319;SDS011;60269;52.502;16.732;2024-01-10T01:35:11;86.17;;;27.97;;
72319;SDS011;60269;52.502;16.732;2024-01-10T01:38:44;100.85;;;33.10;;
72319;SDS011;60269;52.502;16.732;2024-01-10T01:42:16;99.22;;;34.53;;
72319;SDS011;60269;52.502;16.732;2024-01-10T01:45:50;112.27;;;36.17;;
72319;SDS011;60269;52.502;16.732;2024-01-10T01:49:24;82.10;;;29.55;;
72319;SDS011;60269;52.502;16.732;2024-01-10T01:52:57;95.82;;;32.83;;
72319;SDS011;60269;52.502;16.732;2024-01-10T01:56:29;78.00;;;27.80;;
72319;SDS011;60269;52.502;16.732;2024-01-10T02:00:01;86.87;;;30.43;;
72319;SDS011;60269;52.502;16.732;2024-01-10T02:03:34;101.10;;;33.75;;
72319;SDS011;60269;52.502;16.732;2024-01-10T02:07:06;107.68;;;35.47;;
72319;SDS011;60269;52.502;16.732;2024-01-10T02:10:39;109.30;;;33.03;;
72319;SDS011;60269;52.502;16.732;2024-01-10T02:14:11;97.20;;;29.90;;
72319;SDS011;60269;52.502;16.732;2024-01-10T02:17:44;68.80;;;28.67;;
72319;SDS011;60269;52.502;16.732;2024-01-10T02:21:16;68.20;;;25.37;;
72319;SDS011;60269;52.502;16.732;2024-01-10T02:24:53;79.82;;;30.48;;
72319;SDS011;60269;52.502;16.732;2024-01-10T02:28:26;77.90;;;30.45;;
72319;SDS011;60269;52.502;16.732;2024-01-10T02:31:58;100.05;;;31.88;;
72319;SDS011;60269;52.502;16.732;2024-01-10T02:35:30;81.60;;;27.70;;
72319;SDS011;60269;52.502;16.732;2024-01-10T02:39:04;82.88;;;26.40;;
72319;SDS011;60269;52.502;16.732;2024-01-10T02:42:36;84.43;;;29.80;;
72319;SDS011;60269;52.502;16.732;2024-01-10T02:46:09;73.17;;;24.03;;
72319;SDS011;60269;52.502;16.732;2024-01-10T02:49:41;97.53;;;31.58;;
72319;SDS011;60269;52.502;16.732;2024-01-10T02:53:13;91.07;;;29.27;;
72319;SDS011;60269;52.502;16.732;2024-01-10T02:56:45;86.50;;;29.10;;
72319;SDS011;60269;52.502;16.732;2024-01-10T03:00:17;68.75;;;25.95;;
72319;SDS011;60269;52.502;16.732;2024-01-10T03:03:49;102.25;;;35.97;;
72319;SDS011;60269;52.502;16.732;2024-01-10T03:07:21;97.40;;;35.58;;
72319;SDS011;60269;52.502;16.732;2024-01-10T03:10:56;96.57;;;31.80;;
72319;SDS011;60269;52.502;16.732;2024-01-10T03:14:28;100.85;;;33.70;;
72319;SDS011;60269;52.502;16.732;2024-01-10T03:18:00;93.30;;;30.20;;
72319;SDS011;60269;52.502;16.732;2024-01-10T03:21:33;90.03;;;28.53;;
72319;SDS011;60269;52.502;16.732;2024-01-10T03:25:05;83.60;;;30.15;;
72319;SDS011;60269;52.502;16.732;2024-01-10T03:28:37;79.93;;;29.55;;
72319;SDS011;60269;52.502;16.732;2024-01-10T03:32:09;101.30;;;29.20;;
72319;SDS011;60269;52.502;16.732;2024-01-10T03:35:42;79.80;;;30.30;;
72319;SDS011;60269;52.502;16.732;2024-01-10T03:39:14;78.15;;;30.67;;
72319;SDS011;60269;52.502;16.732;2024-01-10T03:42:46;89.03;;;30.30;;
72319;SDS011;60269;52.502;16.732;2024-01-10T03:46:18;62.43;;;25.03;;
72319;SDS011;60269;52.502;16.732;2024-01-10T03:49:50;83.05;;;25.98;;
72319;SDS011;60269;52.502;16.732;2024-01-10T03:53:22;85.55;;;26.25;;
72319;SDS011;60269;52.502;16.732;2024-01-10T03:56:54;77.57;;;27.70;;
72319;SDS011;60269;52.502;16.732;2024-01-10T04:00:27;93.22;;;29.77;;
72319;SDS011;60269;52.502;16.732;2024-01-10T04:03:59;67.03;;;28.58;;
72319;SDS011;60269;52.502;16.732;2024-01-10T04:07:31;83.57;;;31.13;;
72319;SDS011;60269;52.502;16.732;2024-01-10T04:11:03;79.95;;;32.08;;
72319;SDS011;60269;52.502;16.732;2024-01-10T04:14:35;83.18;;;26.55;;
72319;SDS011;60269;52.502;16.732;2024-01-10T04:18:07;83.60;;;30.33;;
72319;SDS011;60269;52.502;16.732;2024-01-10T04:21:40;79.73;;;27.20;;
72319;SDS011;60269;52.502;16.732;2024-01-10T04:25:12;84.38;;;29.48;;
72319;SDS011;60269;52.502;16.732;2024-01-10T04:28:44;93.40;;;29.92;;
72319;SDS011;60269;52.502;16.732;2024-01-10T04:32:17;74.10;;;24.83;;
72319;SDS011;60269;52.502;16.732;2024-01-10T04:35:48;66.43;;;23.83;;
72319;SDS011;60269;52.502;16.732;2024-01-10T04:39:21;72.57;;;23.67;;
72319;SDS011;60269;52.502;16.732;2024-01-10T04:42:53;78.57;;;28.13;;
72319;SDS011;60269;52.502;16.732;2024-01-10T04:46:24;69.93;;;24.85;;
72319;SDS011;60269;52.502;16.732;2024-01-10T04:49:57;70.50;;;26.00;;
72319;SDS011;60269;52.502;16.732;2024-01-10T04:53:28;83.22;;;29.40;;
72319;SDS011;60269;52.502;16.732;2024-01-10T04:57:00;83.63;;;31.23;;
72319;SDS011;60269;52.502;16.732;2024-01-10T05:00:32;82.68;;;28.65;;
72319;SDS011;60269;52.502;16.732;2024-01-10T05:04:05;79.55;;;27.50;;
72319;SDS011;60269;52.502;16.732;2024-01-10T05:07:37;56.37;;;23.00;;
72319;SDS011;60269;52.502;16.732;2024-01-10T05:11:09;81.80;;;28.67;;
72319;SDS011;60269;52.502;16.732;2024-01-10T05:14:41;88.03;;;31.70;;
72319;SDS011;60269;52.502;16.732;2024-01-10T05:18:13;108.07;;;33.77;;
72319;SDS011;60269;52.502;16.732;2024-01-10T05:21:46;71.00;;;26.77;;
72319;SDS011;60269;52.502;16.732;2024-01-10T05:25:18;84.07;;;28.95;;
72319;SDS011;60269;52.502;16.732;2024-01-10T05:28:50;71.68;;;26.63;;
72319;SDS011;60269;52.502;16.732;2024-01-10T05:32:22;86.57;;;30.60;;
72319;SDS011;60269;52.502;16.732;2024-01-10T05:35:55;71.40;;;26.70;;
72319;SDS011;60269;52.502;16.732;2024-01-10T05:39:27;91.57;;;30.95;;
72319;SDS011;60269;52.502;16.732;2024-01-10T05:42:59;77.23;;;25.43;;
72319;SDS011;60269;52.502;16.732;2024-01-10T05:46:31;66.03;;;23.40;;
72319;SDS011;60269;52.502;16.732;2024-01-10T05:50:03;80.20;;;27.90;;
72319;SDS011;60269;52.502;16.732;2024-01-10T05:53:38;114.17;;;32.73;;
72319;SDS011;60269;52.502;16.732;2024-01-10T05:57:10;97.00;;;35.00;;
72319;SDS011;60269;52.502;16.732;2024-01-10T06:00:43;86.93;;;36.00;;
72319;SDS011;60269;52.502;16.732;2024-01-10T06:04:15;116.60;;;38.50;;
72319;SDS011;60269;52.502;16.732;2024-01-10T06:07:47;81.67;;;32.03;;
72319;SDS011;60269;52.502;16.732;2024-01-10T06:11:19;92.13;;;33.67;;
72319;SDS011;60269;52.502;16.732;2024-01-10T06:14:51;75.32;;;27.17;;
72319;SDS011;60269;52.502;16.732;2024-01-10T06:18:26;102.73;;;32.53;;
72319;SDS011;60269;52.502;16.732;2024-01-10T06:21:58;86.63;;;31.98;;
72319;SDS011;60269;52.502;16.732;2024-01-10T06:25:31;76.85;;;28.65;;
72319;SDS011;60269;52.502;16.732;2024-01-10T06:29:03;79.37;;;29.97;;
72319;SDS011;60269;52.502;16.732;2024-01-10T06:32:35;78.80;;;30.92;;
72319;SDS011;60269;52.502;16.732;2024-01-10T06:36:07;102.00;;;29.88;;
72319;SDS011;60269;52.502;16.732;2024-01-10T06:39:41;102.35;;;33.20;;
72319;SDS011;60269;52.502;16.732;2024-01-10T06:43:13;90.80;;;29.43;;
72319;SDS011;60269;52.502;16.732;2024-01-10T06:46:46;78.90;;;26.13;;
72319;SDS011;60269;52.502;16.732;2024-01-10T06:50:18;81.40;;;24.38;;
72319;SDS011;60269;52.502;16.732;2024-01-10T06:53:52;73.90;;;26.87;;
72319;SDS011;60269;52.502;16.732;2024-01-10T06:57:24;90.47;;;29.10;;
72319;SDS011;60269;52.502;16.732;2024-01-10T07:00:56;85.78;;;30.75;;
72319;SDS011;60269;52.502;16.732;2024-01-10T07:04:29;104.77;;;34.67;;
72319;SDS011;60269;52.502;16.732;2024-01-10T07:08:01;85.95;;;26.92;;
72319;SDS011;60269;52.502;16.732;2024-01-10T07:11:35;85.95;;;33.88;;
72319;SDS011;60269;52.502;16.732;2024-01-10T07:15:07;87.47;;;30.05;;
72319;SDS011;60269;52.502;16.732;2024-01-10T07:18:39;98.00;;;31.30;;
72319;SDS011;60269;52.502;16.732;2024-01-10T07:22:12;76.47;;;28.90;;
72319;SDS011;60269;52.502;16.732;2024-01-10T07:25:44;64.32;;;27.73;;
72319;SDS011;60269;52.502;16.732;2024-01-10T07:29:16;82.50;;;30.73;;
72319;SDS011;60269;52.502;16.732;2024-01-10T07:32:48;84.75;;;30.27;;
72319;SDS011;60269;52.502;16.732;2024-01-10T07:36:20;101.60;;;31.67;;
72319;SDS011;60269;52.502;16.732;2024-01-10T07:39:52;78.07;;;32.60;;
72319;SDS011;60269;52.502;16.732;2024-01-10T07:43:26;107.65;;;34.90;;
72319;SDS011;60269;52.502;16.732;2024-01-10T07:46:58;89.95;;;35.13;;
72319;SDS011;60269;52.502;16.732;2024-01-10T07:50:30;117.15;;;37.55;;
72319;SDS011;60269;52.502;16.732;2024-01-10T07:54:03;113.40;;;41.93;;
72319;SDS011;60269;52.502;16.732;2024-01-10T07:57:35;94.80;;;32.85;;
72319;SDS011;60269;52.502;16.732;2024-01-10T08:01:08;103.80;;;35.97;;
72319;SDS011;60269;52.502;16.732;2024-01-10T08:04:43;103.13;;;33.47;;
72319;SDS011;60269;52.502;16.732;2024-01-10T08:08:15;104.97;;;33.88;;
72319;SDS011;60269;52.502;16.732;2024-01-10T08:11:48;101.38;;;36.88;;
72319;SDS011;60269;52.502;16.732;2024-01-10T08:15:20;115.07;;;41.00;;
72319;SDS011;60269;52.502;16.732;2024-01-10T08:18:53;125.50;;;41.80;;
72319;SDS011;60269;52.502;16.732;2024-01-10T08:22:25;126.20;;;43.70;;
72319;SDS011;60269;52.502;16.732;2024-01-10T08:25:59;143.07;;;47.83;;
72319;SDS011;60269;52.502;16.732;2024-01-10T08:29:31;133.60;;;43.47;;
72319;SDS011;60269;52.502;16.732;2024-01-10T08:33:04;130.07;;;45.75;;
72319;SDS011;60269;52.502;16.732;2024-01-10T08:36:36;142.95;;;48.75;;
72319;SDS011;60269;52.502;16.732;2024-01-10T08:40:09;154.07;;;49.70;;
72319;SDS011;60269;52.502;16.732;2024-01-10T08:43:47;153.63;;;48.83;;
72319;SDS011;60269;52.502;16.732;2024-01-10T08:47:19;127.15;;;43.83;;
72319;SDS011;60269;52.502;16.732;2024-01-10T08:50:51;129.23;;;43.60;;
72319;SDS011;60269;52.502;16.732;2024-01-10T08:54:26;113.30;;;42.17;;
72319;SDS011;60269;52.502;16.732;2024-01-10T08:57:58;122.65;;;42.70;;
72319;SDS011;60269;52.502;16.732;2024-01-10T09:01:30;114.47;;;40.85;;
72319;SDS011;60269;52.502;16.732;2024-01-10T09:05:03;103.33;;;36.90;;
72319;SDS011;60269;52.502;16.732;2024-01-10T09:08:35;105.03;;;39.42;;
72319;SDS011;60269;52.502;16.732;2024-01-10T09:12:08;106.38;;;37.47;;
72319;SDS011;60269;52.502;16.732;2024-01-10T09:15:41;122.00;;;43.00;;
72319;SDS011;60269;52.502;16.732;2024-01-10T09:19:13;106.55;;;37.55;;
72319;SDS011;60269;52.502;16.732;2024-01-10T09:22:49;98.53;;;40.22;;
72319;SDS011;60269;52.502;16.732;2024-01-10T09:26:22;119.37;;;44.20;;
72319;SDS011;60269;52.502;16.732;2024-01-10T09:29:55;103.13;;;34.10;;
72319;SDS011;60269;52.502;16.732;2024-01-10T09:33:27;102.07;;;35.42;;
72319;SDS011;60269;52.502;16.732;2024-01-10T09:36:59;107.55;;;37.03;;
72319;SDS011;60269;52.502;16.732;2024-01-10T09:40:33;90.50;;;34.00;;
72319;SDS011;60269;52.502;16.732;2024-01-10T09:44:05;87.70;;;31.55;;
72319;SDS011;60269;52.502;16.732;2024-01-10T09:47:37;80.95;;;31.75;;
72319;SDS011;60269;52.502;16.732;2024-01-10T09:51:12;111.20;;;38.50;;
72319;SDS011;60269;52.502;16.732;2024-01-10T09:54:44;112.75;;;41.15;;
72319;SDS011;60269;52.502;16.732;2024-01-10T09:58:18;134.82;;;45.22;;
72319;SDS011;60269;52.502;16.732;2024-01-10T10:01:53;132.77;;;44.90;;
72319;SDS011;60269;52.502;16.732;2024-01-10T10:05:27;124.05;;;41.42;;
72319;SDS011;60269;52.502;16.732;2024-01-10T10:09:00;115.03;;;41.75;;
72319;SDS011;60269;52.502;16.732;2024-01-10T10:12:42;114.85;;;39.45;;
72319;SDS011;60269;52.502;16.732;2024-01-10T10:16:15;115.40;;;38.83;;
72319;SDS011;60269;52.502;16.732;2024-01-10T10:20:02;106.18;;;38.80;;
72319;SDS011;60269;52.502;16.732;2024-01-10T10:23:39;98.65;;;35.95;;
72319;SDS011;60269;52.502;16.732;2024-01-10T10:27:28;92.67;;;36.13;;
72319;SDS011;60269;52.502;16.732;2024-01-10T10:31:01;106.00;;;37.30;;
72319;SDS011;60269;52.502;16.732;2024-01-10T10:34:34;112.32;;;39.55;;
72319;SDS011;60269;52.502;16.732;2024-01-10T10:38:07;94.50;;;36.57;;
72319;SDS011;60269;52.502;16.732;2024-01-10T10:41:42;95.38;;;37.80;;
72319;SDS011;60269;52.502;16.732;2024-01-10T10:45:16;106.80;;;39.03;;
72319;SDS011;60269;52.502;16.732;2024-01-10T10:48:49;113.10;;;40.50;;
72319;SDS011;60269;52.502;16.732;2024-01-10T10:52:21;98.97;;;38.30;;
72319;SDS011;60269;52.502;16.732;2024-01-10T10:55:56;111.22;;;40.72;;
72319;SDS011;60269;52.502;16.732;2024-01-10T10:59:29;110.60;;;41.92;;
72319;SDS011;60269;52.502;16.732;2024-01-10T11:03:03;124.70;;;43.93;;
72319;SDS011;60269;52.502;16.732;2024-01-10T11:06:36;125.55;;;47.63;;
72319;SDS011;60269;52.502;16.732;2024-01-10T11:10:17;125.78;;;46.08;;
72319;SDS011;60269;52.502;16.732;2024-01-10T11:25:06;139.85;;;49.35;;
72319;SDS011;60269;52.502;16.732;2024-01-10T11:28:38;114.13;;;43.43;;
72319;SDS011;60269;52.502;16.732;2024-01-10T11:32:15;125.93;;;48.75;;
72319;SDS011;60269;52.502;16.732;2024-01-10T11:36:31;118.00;;;44.50;;
72319;SDS011;60269;52.502;16.732;2024-01-10T11:39:50;98.93;;;36.97;;
72319;SDS011;60269;52.502;16.732;2024-01-10T11:43:22;100.65;;;37.92;;
72319;SDS011;60269;52.502;16.732;2024-01-10T11:46:54;97.35;;;37.92;;
72319;SDS011;60269;52.502;16.732;2024-01-10T11:50:28;102.63;;;39.13;;
72319;SDS011;60269;52.502;16.732;2024-01-10T11:54:02;103.55;;;38.42;;
72319;SDS011;60269;52.502;16.732;2024-01-10T11:57:35;95.22;;;38.88;;
72319;SDS011;60269;52.502;16.732;2024-01-10T12:01:07;96.97;;;36.58;;
72319;SDS011;60269;52.502;16.732;2024-01-10T12:04:39;96.53;;;35.73;;
72319;SDS011;60269;52.502;16.732;2024-01-10T12:08:19;93.00;;;37.10;;
72319;SDS011;60269;52.502;16.732;2024-01-10T12:11:51;100.90;;;34.80;;
72319;SDS011;60269;52.502;16.732;2024-01-10T12:15:23;95.27;;;36.50;;
72319;SDS011;60269;52.502;16.732;2024-01-10T12:18:56;99.65;;;35.90;;
72319;SDS011;60269;52.502;16.732;2024-01-10T12:22:28;87.55;;;33.47;;
72319;SDS011;60269;52.502;16.732;2024-01-10T12:26:03;80.73;;;33.77;;
72319;SDS011;60269;52.502;16.732;2024-01-10T12:29:36;81.22;;;34.72;;
72319;SDS011;60269;52.502;16.732;2024-01-10T12:33:09;93.70;;;34.17;;
72319;SDS011;60269;52.502;16.732;2024-01-10T12:36:42;83.97;;;33.45;;
72319;SDS011;60269;52.502;16.732;2024-01-10T12:40:15;84.43;;;34.90;;
72319;SDS011;60269;52.502;16.732;2024-01-10T12:43:53;86.00;;;34.83;;
72319;SDS011;60269;52.502;16.732;2024-01-10T12:47:27;92.35;;;35.00;;
72319;SDS011;60269;52.502;16.732;2024-01-10T12:50:59;86.60;;;35.17;;
72319;SDS011;60269;52.502;16.732;2024-01-10T12:54:37;86.80;;;37.67;;
72319;SDS011;60269;52.502;16.732;2024-01-10T12:58:10;93.18;;;37.00;;
72319;SDS011;60269;52.502;16.732;2024-01-10T13:01:41;104.20;;;40.63;;
72319;SDS011;60269;52.502;16.732;2024-01-10T13:05:14;96.00;;;37.63;;
72319;SDS011;60269;52.502;16.732;2024-01-10T13:08:47;84.13;;;36.45;;
72319;SDS011;60269;52.502;16.732;2024-01-10T13:12:20;80.03;;;33.78;;
72319;SDS011;60269;52.502;16.732;2024-01-10T13:15:52;84.70;;;34.23;;
72319;SDS011;60269;52.502;16.732;2024-01-10T13:19:25;87.47;;;34.58;;
72319;SDS011;60269;52.502;16.732;2024-01-10T13:22:58;88.28;;;35.90;;
72319;SDS011;60269;52.502;16.732;2024-01-10T13:26:30;91.40;;;38.10;;
72319;SDS011;60269;52.502;16.732;2024-01-10T13:30:02;93.45;;;39.08;;
72319;SDS011;60269;52.502;16.732;2024-01-10T13:33:36;85.43;;;35.67;;
72319;SDS011;60269;52.502;16.732;2024-01-10T13:37:17;98.20;;;38.13;;
72319;SDS011;60269;52.502;16.732;2024-01-10T13:40:49;94.07;;;35.97;;
72319;SDS011;60269;52.502;16.732;2024-01-10T13:44:22;83.38;;;34.55;;
72319;SDS011;60269;52.502;16.732;2024-01-10T13:47:54;82.43;;;34.10;;
72319;SDS011;60269;52.502;16.732;2024-01-10T13:51:26;81.50;;;31.43;;
72319;SDS011;60269;52.502;16.732;2024-01-10T13:55:01;81.03;;;32.67;;
72319;SDS011;60269;52.502;16.732;2024-01-10T13:58:36;80.50;;;32.60;;
72319;SDS011;60269;52.502;16.732;2024-01-10T14:02:09;73.50;;;31.17;;
72319;SDS011;60269;52.502;16.732;2024-01-10T14:05:42;85.47;;;34.50;;
72319;SDS011;60269;52.502;16.732;2024-01-10T14:09:14;82.57;;;32.03;;
72319;SDS011;60269;52.502;16.732;2024-01-10T14:12:46;85.03;;;33.33;;
72319;SDS011;60269;52.502;16.732;2024-01-10T14:16:19;91.80;;;34.75;;
72319;SDS011;60269;52.502;16.732;2024-01-10T14:19:51;86.38;;;34.53;;
72319;SDS011;60269;52.502;16.732;2024-01-10T14:23:24;93.38;;;37.08;;
72319;SDS011;60269;52.502;16.732;2024-01-10T14:26:56;96.10;;;37.73;;
72319;SDS011;60269;52.502;16.732;2024-01-10T14:30:28;101.28;;;41.00;;
72319;SDS011;60269;52.502;16.732;2024-01-10T14:34:01;103.55;;;40.40;;
72319;SDS011;60269;52.502;16.732;2024-01-10T14:37:36;106.33;;;42.27;;
72319;SDS011;60269;52.502;16.732;2024-01-10T14:41:08;103.30;;;37.92;;
72319;SDS011;60269;52.502;16.732;2024-01-10T14:44:41;119.93;;;40.20;;
72319;SDS011;60269;52.502;16.732;2024-01-10T14:48:12;109.27;;;39.90;;
72319;SDS011;60269;52.502;16.732;2024-01-10T14:51:45;108.95;;;38.38;;
72319;SDS011;60269;52.502;16.732;2024-01-10T14:55:18;78.18;;;30.20;;
72319;SDS011;60269;52.502;16.732;2024-01-10T14:58:50;73.43;;;27.48;;
72319;SDS011;60269;52.502;16.732;2024-01-10T15:02:22;79.77;;;29.03;;
72319;SDS011;60269;52.502;16.732;2024-01-10T15:05:54;98.60;;;33.38;;
72319;SDS011;60269;52.502;16.732;2024-01-10T15:09:28;94.80;;;33.50;;
72319;SDS011;60269;52.502;16.732;2024-01-10T15:13:00;83.87;;;34.10;;
72319;SDS011;60269;52.502;16.732;2024-01-10T15:16:32;120.50;;;38.17;;
72319;SDS011;60269;52.502;16.732;2024-01-10T15:20:05;103.28;;;31.67;;
72319;SDS011;60269;52.502;16.732;2024-01-10T15:23:38;97.77;;;31.80;;
72319;SDS011;60269;52.502;16.732;2024-01-10T15:27:10;80.57;;;30.08;;
72319;SDS011;60269;52.502;16.732;2024-01-10T15:30:43;84.25;;;30.85;;
72319;SDS011;60269;52.502;16.732;2024-01-10T15:34:19;95.90;;;31.50;;
72319;SDS011;60269;52.502;16.732;2024-01-10T15:37:52;101.37;;;34.30;;
72319;SDS011;60269;52.502;16.732;2024-01-10T15:41:24;98.05;;;34.17;;
72319;SDS011;60269;52.502;16.732;2024-01-10T15:44:57;104.63;;;34.10;;
72319;SDS011;60269;52.502;16.732;2024-01-10T15:48:28;101.60;;;34.23;;
72319;SDS011;60269;52.502;16.732;2024-01-10T15:52:01;97.78;;;36.47;;
72319;SDS011;60269;52.502;16.732;2024-01-10T15:55:33;98.93;;;34.53;;
72319;SDS011;60269;52.502;16.732;2024-01-10T15:59:06;71.10;;;29.17;;
72319;SDS011;60269;52.502;16.732;2024-01-10T16:02:39;93.50;;;28.95;;
72319;SDS011;60269;52.502;16.732;2024-01-10T16:06:13;88.72;;;29.85;;
72319;SDS011;60269;52.502;16.732;2024-01-10T16:09:48;80.60;;;28.83;;
72319;SDS011;60269;52.502;16.732;2024-01-10T16:13:20;68.03;;;27.53;;
72319;SDS011;60269;52.502;16.732;2024-01-10T16:16:52;90.10;;;28.08;;
72319;SDS011;60269;52.502;16.732;2024-01-10T16:20:24;77.38;;;27.83;;
72319;SDS011;60269;52.502;16.732;2024-01-10T16:23:57;70.40;;;26.00;;
72319;SDS011;60269;52.502;16.732;2024-01-10T16:27:29;72.43;;;26.17;;
72319;SDS011;60269;52.502;16.732;2024-01-10T16:31:01;76.80;;;26.77;;
72319;SDS011;60269;52.502;16.732;2024-01-10T16:34:33;83.47;;;27.57;;
72319;SDS011;60269;52.502;16.732;2024-01-10T16:38:05;87.95;;;28.80;;
72319;SDS011;60269;52.502;16.732;2024-01-10T16:41:38;79.32;;;27.38;;
72319;SDS011;60269;52.502;16.732;2024-01-10T16:45:10;62.47;;;24.75;;
72319;SDS011;60269;52.502;16.732;2024-01-10T16:48:42;63.90;;;22.33;;
72319;SDS011;60269;52.502;16.732;2024-01-10T16:52:15;62.40;;;23.30;;
72319;SDS011;60269;52.502;16.732;2024-01-10T16:55:47;66.80;;;22.50;;
72319;SDS011;60269;52.502;16.732;2024-01-10T16:59:19;62.53;;;20.47;;
72319;SDS011;60269;52.502;16.732;2024-01-10T17:02:52;59.78;;;20.42;;
72319;SDS011;60269;52.502;16.732;2024-01-10T17:06:28;60.17;;;20.13;;
72319;SDS011;60269;52.502;16.732;2024-01-10T17:10:01;72.93;;;24.67;;
72319;SDS011;60269;52.502;16.732;2024-01-10T17:13:35;68.72;;;24.27;;
72319;SDS011;60269;52.502;16.732;2024-01-10T17:17:07;66.47;;;25.13;;
72319;SDS011;60269;52.502;16.732;2024-01-10T17:20:39;77.68;;;28.10;;
72319;SDS011;60269;52.502;16.732;2024-01-10T17:24:12;71.63;;;26.70;;
72319;SDS011;60269;52.502;16.732;2024-01-10T17:27:44;88.38;;;30.83;;
72319;SDS011;60269;52.502;16.732;2024-01-10T17:31:18;93.70;;;29.58;;
72319;SDS011;60269;52.502;16.732;2024-01-10T17:34:50;76.20;;;28.40;;
72319;SDS011;60269;52.502;16.732;2024-01-10T17:38:22;80.55;;;28.13;;
72319;SDS011;60269;52.502;16.732;2024-01-10T17:41:55;91.68;;;31.42;;
72319;SDS011;60269;52.502;16.732;2024-01-10T17:45:27;86.10;;;31.63;;
72319;SDS011;60269;52.502;16.732;2024-01-10T17:48:59;95.88;;;30.30;;
72319;SDS011;60269;52.502;16.732;2024-01-10T17:52:31;88.57;;;30.08;;
72319;SDS011;60269;52.502;16.732;2024-01-10T17:56:03;94.50;;;30.20;;
72319;SDS011;60269;52.502;16.732;2024-01-10T17:59:35;87.60;;;29.03;;
72319;SDS011;60269;52.502;16.732;2024-01-10T18:03:07;94.05;;;30.88;;
72319;SDS011;60269;52.502;16.732;2024-01-10T18:06:39;86.97;;;31.45;;
72319;SDS011;60269;52.502;16.732;2024-01-10T18:10:12;87.30;;;29.60;;
72319;SDS011;60269;52.502;16.732;2024-01-10T18:13:43;83.28;;;27.95;;
72319;SDS011;60269;52.502;16.732;2024-01-10T18:17:15;75.55;;;25.35;;
72319;SDS011;60269;52.502;16.732;2024-01-10T18:20:48;94.93;;;31.30;;
72319;SDS011;60269;52.502;16.732;2024-01-10T18:24:20;86.35;;;31.20;;
72319;SDS011;60269;52.502;16.732;2024-01-10T18:27:52;77.88;;;27.75;;
72319;SDS011;60269;52.502;16.732;2024-01-10T18:31:24;85.93;;;29.02;;
72319;SDS011;60269;52.502;16.732;2024-01-10T18:34:56;78.07;;;26.17;;
72319;SDS011;60269;52.502;16.732;2024-01-10T18:38:28;77.95;;;29.13;;
72319;SDS011;60269;52.502;16.732;2024-01-10T18:42:01;87.68;;;31.25;;
72319;SDS011;60269;52.502;16.732;2024-01-10T18:45:33;83.30;;;32.53;;
72319;SDS011;60269;52.502;16.732;2024-01-10T18:49:06;94.43;;;33.38;;
72319;SDS011;60269;52.502;16.732;2024-01-10T18:52:39;79.35;;;28.73;;
72319;SDS011;60269;52.502;16.732;2024-01-10T18:56:11;147.10;;;50.73;;
72319;SDS011;60269;52.502;16.732;2024-01-10T18:59:43;117.40;;;41.08;;
72319;SDS011;60269;52.502;16.732;2024-01-10T19:03:16;114.70;;;42.10;;
72319;SDS011;60269;52.502;16.732;2024-01-10T19:06:48;117.50;;;42.28;;
72319;SDS011;60269;52.502;16.732;2024-01-10T19:10:25;120.77;;;43.03;;
72319;SDS011;60269;52.502;16.732;2024-01-10T19:13:57;122.70;;;40.72;;
72319;SDS011;60269;52.502;16.732;2024-01-10T19:17:30;106.32;;;37.40;;
72319;SDS011;60269;52.502;16.732;2024-01-10T19:21:02;111.03;;;33.13;;
72319;SDS011;60269;52.502;16.732;2024-01-10T19:24:35;106.15;;;35.22;;
72319;SDS011;60269;52.502;16.732;2024-01-10T19:28:07;90.70;;;33.42;;
72319;SDS011;60269;52.502;16.732;2024-01-10T19:31:39;102.53;;;33.80;;
72319;SDS011;60269;52.502;16.732;2024-01-10T19:35:11;97.03;;;34.60;;
72319;SDS011;60269;52.502;16.732;2024-01-10T19:38:44;80.78;;;32.80;;
72319;SDS011;60269;52.502;16.732;2024-01-10T19:42:17;110.82;;;42.45;;
72319;SDS011;60269;52.502;16.732;2024-01-10T19:45:49;103.33;;;33.10;;
72319;SDS011;60269;52.502;16.732;2024-01-10T19:49:21;103.15;;;35.50;;
72319;SDS011;60269;52.502;16.732;2024-01-10T19:52:54;106.13;;;35.13;;
72319;SDS011;60269;52.502;16.732;2024-01-10T19:56:28;101.43;;;30.77;;
72319;SDS011;60269;52.502;16.732;2024-01-10T20:00:02;79.57;;;29.75;;
72319;SDS011;60269;52.502;16.732;2024-01-10T20:03:34;87.88;;;29.38;;
72319;SDS011;60269;52.502;16.732;2024-01-10T20:07:06;82.60;;;27.97;;
72319;SDS011;60269;52.502;16.732;2024-01-10T20:10:38;81.60;;;27.45;;
72319;SDS011;60269;52.502;16.732;2024-01-10T20:14:13;80.20;;;28.48;;
72319;SDS011;60269;52.502;16.732;2024-01-10T20:17:45;72.40;;;28.17;;
72319;SDS011;60269;52.502;16.732;2024-01-10T20:21:18;75.27;;;25.03;;
72319;SDS011;60269;52.502;16.732;2024-01-10T20:24:50;71.10;;;26.23;;
72319;SDS011;60269;52.502;16.732;2024-01-10T20:28:22;73.30;;;23.40;;
72319;SDS011;60269;52.502;16.732;2024-01-10T20:31:55;67.83;;;24.03;;